Time;durP1;ratioP1;P1;durP2;ratioP2;P2;SDS_P1;SDS_P2;PMS_P1;PMS_P2;Temp;Humidity;BMP_temperature;BMP_pressure;BME280_temperature;BME280_humidity;BME280_pressure;Samples;Min_cycle;Max_cycle;Signal;HPM_P1;HPM_P2
2022/09/16 00:00:52;;;;;;;9.32;2.10;;;;;;;14.58;91.32;101199.41;5028816;28;20124;-65
2022/09/16 00:03:18;;;;;;;7.13;1.40;;;;;;;14.60;90.81;101201.97;5022267;28;20029;-65
2022/09/16 00:05:48;;;;;;;7.43;1.20;;;;;;;14.65;89.86;101189.34;5007769;28;20041;-65
2022/09/16 00:08:15;;;;;;;10.82;1.80;;;;;;;14.68;88.85;101185.69;5008626;28;20041;-66
2022/09/16 00:10:42;;;;;;;4.45;1.10;;;;;;;14.74;87.82;101186.28;5009585;28;20025;-69
2022/09/16 00:13:07;;;;;;;6.93;1.70;;;;;;;14.91;86.98;101190.00;5008971;28;20037;-65
2022/09/16 00:15:32;;;;;;;9.40;1.90;;;;;;;14.94;86.64;101189.84;5008890;28;20022;-66
2022/09/16 00:17:58;;;;;;;14.18;1.45;;;;;;;14.95;86.49;101190.69;5008436;28;20084;-67
2022/09/16 00:20:24;;;;;;;5.97;1.40;;;;;;;14.93;86.57;101200.53;5008159;28;20022;-65
2022/09/16 00:22:49;;;;;;;10.38;1.20;;;;;;;14.90;85.92;101193.59;5011369;28;20423;-67
2022/09/16 00:25:14;;;;;;;4.28;1.17;;;;;;;14.88;85.34;101195.44;5029230;28;20120;-68
2022/09/16 00:27:40;;;;;;;4.78;1.15;;;;;;;14.94;84.80;101188.97;5027755;28;20029;-69
2022/09/16 00:30:05;;;;;;;5.03;1.10;;;;;;;14.90;84.44;101194.41;5028369;28;20056;-67
2022/09/16 00:32:31;;;;;;;5.40;1.30;;;;;;;14.95;83.07;101202.16;5012269;28;20109;-68
2022/09/16 00:34:56;;;;;;;2.15;0.80;;;;;;;14.89;83.07;101205.97;5008068;28;20479;-65
2022/09/16 00:37:22;;;;;;;7.10;1.40;;;;;;;14.78;83.27;101206.47;5007936;28;20030;-65
2022/09/16 00:39:48;;;;;;;9.35;1.33;;;;;;;14.69;85.98;101208.66;5017039;28;20025;-66
2022/09/16 00:42:13;;;;;;;2.55;0.73;;;;;;;14.61;88.02;101209.00;5028769;28;20079;-61
2022/09/16 00:45:04;;;;;;;9.25;1.30;;;;;;;14.75;88.49;101203.06;5027566;28;20475;-66
2022/09/16 00:47:40;;;;;;;8.88;1.27;;;;;;;14.89;88.17;101202.44;5027423;28;20057;-65
2022/09/16 00:50:10;;;;;;;8.95;1.73;;;;;;;14.94;87.54;101194.28;5026310;28;20056;-64
2022/09/16 00:52:35;;;;;;;8.60;1.33;;;;;;;14.84;88.28;101189.41;5022698;28;20544;-67
2022/09/16 00:55:05;;;;;;;7.13;1.13;;;;;;;14.86;87.82;101186.66;5008728;28;20116;-67
2022/09/16 00:57:31;;;;;;;10.38;1.02;;;;;;;14.86;87.89;101202.59;5022630;28;20034;-65
2022/09/16 00:59:57;;;;;;;8.25;1.00;;;;;;;14.72;88.96;101200.56;5023838;28;20030;-66
2022/09/16 01:02:22;;;;;;;13.60;1.15;;;;;;;14.64;89.65;101183.22;5025618;28;20030;-62
2022/09/16 01:05:00;;;;;;;3.47;0.90;;;;;;;14.56;89.16;101190.63;5027429;28;20041;-67
2022/09/16 01:07:30;;;;;;;5.20;1.23;;;;;;;14.80;88.29;101187.81;5027687;28;20037;-66
2022/09/16 01:09:56;;;;;;;4.50;1.10;;;;;;;14.95;87.30;101191.56;5026903;28;20025;-66
2022/09/16 01:12:21;;;;;;;4.63;1.10;;;;;;;15.05;85.52;101199.94;5025710;28;20041;-64
2022/09/16 01:14:52;;;;;;;5.97;0.80;;;;;;;15.11;85.00;101214.72;5026986;28;20163;-66
2022/09/16 01:17:50;;;;;;;4.78;0.90;;;;;;;15.10;85.09;101200.59;5027914;28;20029;-68
2022/09/16 01:20:30;;;;;;;5.40;0.90;;;;;;;15.11;85.64;101198.81;5002867;28;20099;-67
2022/09/16 01:23:08;;;;;;;6.10;0.95;;;;;;;15.03;86.42;101200.00;5011422;28;20034;-66
2022/09/16 01:25:57;;;;;;;7.85;1.23;;;;;;;15.09;86.40;101196.22;5040410;28;20021;-68
2022/09/16 01:28:48;;;;;;;3.00;0.85;;;;;;;15.14;86.57;101215.44;5029699;28;20507;-67
2022/09/16 01:31:40;;;;;;;9.30;1.02;;;;;;;15.12;86.99;101216.44;5030710;28;20116;-67
2022/09/16 01:34:21;;;;;;;3.83;0.80;;;;;;;15.08;87.81;101210.41;5031502;28;20094;-66
2022/09/16 01:37:03;;;;;;;5.43;1.10;;;;;;;14.99;88.71;101208.22;5024998;28;20025;-68
2022/09/16 01:40:00;;;;;;;2.92;0.95;;;;;;;15.01;88.52;101211.63;5030021;28;20380;-67
2022/09/16 01:42:52;;;;;;;4.00;1.25;;;;;;;14.95;88.40;101209.25;5045658;28;20404;-68
2022/09/16 01:45:28;;;;;;;7.25;1.10;;;;;;;14.93;88.84;101216.44;5023419;28;20076;-63
2022/09/16 01:48:05;;;;;;;3.28;0.95;;;;;;;14.90;88.81;101210.34;5030663;28;20030;-69
2022/09/16 01:50:43;;;;;;;6.05;1.23;;;;;;;14.81;89.19;101205.44;5030183;28;20036;-67
2022/09/16 01:53:19;;;;;;;3.65;0.95;;;;;;;14.70;89.42;101205.94;5030198;28;20037;-68
2022/09/16 01:55:50;;;;;;;3.78;0.75;;;;;;;14.61;89.55;101207.22;5021078;28;20029;-67
2022/09/16 01:58:26;;;;;;;2.72;0.68;;;;;;;14.57;89.92;101204.75;5010065;28;20053;-67
2022/09/16 02:00:55;;;;;;;9.88;0.80;;;;;;;14.57;89.88;101204.75;5017756;28;20527;-67
2022/09/16 02:03:24;;;;;;;6.22;0.90;;;;;;;14.62;89.78;101205.41;5029294;28;20491;-64
2022/09/16 02:05:57;;;;;;;2.75;0.57;;;;;;;14.61;89.75;101204.56;5010937;28;20468;-67
2022/09/16 02:08:35;;;;;;;7.07;1.00;;;;;;;14.56;89.80;101205.69;5029553;28;20100;-67
2022/09/16 02:11:04;;;;;;;5.45;0.80;;;;;;;14.60;89.21;101213.44;5029238;28;20085;-64
2022/09/16 02:13:34;;;;;;;4.70;0.90;;;;;;;14.67;88.90;101203.41;5029757;28;20041;-67
2022/09/16 02:16:12;;;;;;;0.85;0.70;;;;;;;14.61;89.18;101204.56;5030458;28;20109;-67
2022/09/16 02:18:40;;;;;;;4.40;0.85;;;;;;;14.75;88.80;101216.34;5030695;28;20033;-63
2022/09/16 02:21:08;;;;;;;6.03;1.05;;;;;;;14.74;88.44;101217.25;5026916;28;20026;-66
2022/09/16 02:23:38;;;;;;;4.15;0.90;;;;;;;14.82;87.74;101215.16;5042873;28;20490;-67
2022/09/16 02:26:05;;;;;;;8.18;1.17;;;;;;;14.66;87.79;101214.97;5028473;28;20037;-67
2022/09/16 02:28:33;;;;;;;5.57;1.02;;;;;;;14.63;87.67;101208.00;5027300;28;20032;-64
2022/09/16 02:31:01;;;;;;;5.18;1.00;;;;;;;14.72;86.93;101201.41;5027815;28;20033;-67
2022/09/16 02:33:32;;;;;;;6.68;1.02;;;;;;;14.79;86.77;101204.69;5026711;28;20086;-65
2022/09/16 02:35:58;;;;;;;3.63;0.80;;;;;;;14.84;86.50;101200.00;5010224;28;20061;-66
2022/09/16 02:38:25;;;;;;;3.95;1.00;;;;;;;14.82;86.21;101199.25;5009786;28;20425;-64
2022/09/16 02:40:56;;;;;;;4.95;1.00;;;;;;;14.78;86.62;101195.00;5024647;28;20094;-67
2022/09/16 02:43:22;;;;;;;6.50;1.20;;;;;;;14.72;86.44;101192.59;5026654;28;20040;-67
2022/09/16 02:46:00;;;;;;;7.72;1.00;;;;;;;14.77;86.29;101199.41;5029731;28;20029;-66
2022/09/16 02:48:33;;;;;;;5.10;0.70;;;;;;;14.74;86.66;101199.56;5028341;28;20021;-67
2022/09/16 02:51:15;;;;;;;6.13;1.00;;;;;;;14.71;86.78;101198.81;5018966;28;20526;-68
2022/09/16 02:54:15;;;;;;;4.75;1.08;;;;;;;14.65;87.00;101202.63;5028158;28;20044;-67
2022/09/16 02:56:41;;;;;;;7.50;0.90;;;;;;;14.61;87.38;101204.56;5021392;28;20459;-64
2022/09/16 02:59:09;;;;;;;5.72;1.00;;;;;;;14.64;87.65;101220.34;5027796;28;20100;-66
2022/09/16 03:01:40;;;;;;;7.43;1.13;;;;;;;14.68;87.34;101238.75;5028046;28;20092;-68
2022/09/16 03:04:07;;;;;;;2.92;0.80;;;;;;;14.11;85.79;101253.53;5028924;28;20022;-66
2022/09/16 03:06:35;;;;;;;4.00;1.17;;;;;;;13.86;86.68;101241.34;5028038;28;20120;-68
2022/09/16 03:09:02;;;;;;;5.18;0.73;;;;;;;13.62;87.00;101225.53;5028277;28;20535;-68
2022/09/16 03:11:39;;;;;;;4.40;0.80;;;;;;;13.71;87.76;101211.91;5027197;28;20531;-64
2022/09/16 03:14:14;;;;;;;7.70;1.20;;;;;;;13.61;88.56;101207.91;5027620;28;20029;-66
2022/09/16 03:16:45;;;;;;;4.63;0.80;;;;;;;13.60;88.75;101196.47;5028809;28;20534;-67
2022/09/16 03:19:53;;;;;;;6.07;1.15;;;;;;;13.48;89.46;101196.91;5028468;28;20043;-66
2022/09/16 03:22:45;;;;;;;6.25;1.52;;;;;;;13.55;88.31;101185.22;4995280;28;20111;-64
2022/09/16 03:25:28;;;;;;;3.92;0.77;;;;;;;13.56;88.00;101188.69;5012407;28;20025;-68
2022/09/16 03:28:05;;;;;;;2.53;1.30;;;;;;;13.59;88.13;101180.63;5009819;28;20079;-67
2022/09/16 03:30:32;;;;;;;4.18;1.00;;;;;;;13.58;88.42;101186.88;5007689;28;20503;-66
2022/09/16 03:33:02;;;;;;;7.35;1.05;;;;;;;13.54;89.02;101182.63;5008537;28;20030;-67
2022/09/16 03:35:30;;;;;;;5.07;1.05;;;;;;;13.48;89.72;101186.34;5006803;28;20022;-67
2022/09/16 03:37:57;;;;;;;2.28;0.60;;;;;;;13.37;90.68;101190.28;5007823;28;20167;-68
2022/09/16 03:40:23;;;;;;;6.38;1.10;;;;;;;13.31;91.48;101187.91;5007050;28;20822;-66
2022/09/16 03:42:49;;;;;;;7.88;1.10;;;;;;;13.32;92.44;101181.69;5040527;28;20116;-63
2022/09/16 03:45:20;;;;;;;5.13;0.90;;;;;;;13.36;92.73;101192.97;5029026;28;20099;-66
2022/09/16 03:47:46;;;;;;;4.78;1.10;;;;;;;13.45;92.07;101202.38;5028307;28;20022;-67
2022/09/16 03:50:13;;;;;;;3.35;1.05;;;;;;;13.63;91.25;101209.56;5027748;28;20040;-68
2022/09/16 03:52:38;;;;;;;4.30;0.80;;;;;;;13.37;91.43;101211.44;5027359;28;20041;-67
2022/09/16 03:55:04;;;;;;;4.75;0.80;;;;;;;13.45;89.04;101205.00;5028364;28;20105;-65
2022/09/16 03:57:30;;;;;;;8.63;1.27;;;;;;;13.76;87.71;101201.13;5021067;28;20091;-63
2022/09/16 03:59:56;;;;;;;8.52;1.10;;;;;;;13.88;87.03;101197.94;5027733;28;20036;-64
2022/09/16 04:02:21;;;;;;;6.72;1.27;;;;;;;13.94;86.70;101190.69;5027426;28;20109;-66
2022/09/16 04:04:47;;;;;;;5.93;1.00;;;;;;;13.89;87.06;101190.88;5028306;28;20021;-66
2022/09/16 04:07:12;;;;;;;2.80;0.90;;;;;;;13.95;87.10;101200.34;5027370;28;20125;-66
2022/09/16 04:09:37;;;;;;;6.43;1.00;;;;;;;13.87;88.60;101193.59;5019791;28;20029;-66
2022/09/16 04:12:04;;;;;;;3.78;0.75;;;;;;;13.94;88.35;101193.34;5023702;28;20091;-66
2022/09/16 04:14:29;;;;;;;6.05;0.82;;;;;;;13.96;88.18;101189.69;5027704;28;21384;-64
2022/09/16 04:16:54;;;;;;;4.70;0.60;;;;;;;13.93;88.38;101191.63;5027768;28;20535;-65
2022/09/16 04:19:20;;;;;;;3.80;0.90;;;;;;;14.00;88.12;101187.78;5024320;28;20030;-67
2022/09/16 04:21:45;;;;;;;5.40;1.15;;;;;;;13.98;88.48;101184.31;5025324;28;20026;-66
2022/09/16 04:24:11;;;;;;;4.85;0.88;;;;;;;13.97;88.30;101182.63;5028239;28;20476;-65
2022/09/16 04:26:37;;;;;;;2.67;0.80;;;;;;;13.91;87.95;101175.78;5027503;28;20104;-66
2022/09/16 04:29:02;;;;;;;3.63;0.90;;;;;;;13.77;88.40;101177.25;5026500;28;20116;-65
2022/09/16 04:31:27;;;;;;;4.43;0.90;;;;;;;13.65;89.31;101175.09;5027634;28;20075;-66
2022/09/16 04:33:53;;;;;;;3.97;0.95;;;;;;;13.62;89.65;101186.69;5027315;28;20034;-66
2022/09/16 04:36:19;;;;;;;6.47;1.13;;;;;;;13.59;90.65;101178.88;5027601;28;20087;-64
2022/09/16 04:38:46;;;;;;;5.18;1.00;;;;;;;13.53;91.64;101184.41;5027797;28;20021;-66
2022/09/16 04:41:19;;;;;;;6.90;1.10;;;;;;;13.60;91.23;101185.00;5024061;28;20038;-65
2022/09/16 04:43:45;;;;;;;3.55;1.02;;;;;;;13.56;91.41;101188.69;5007831;28;20026;-65
2022/09/16 04:46:11;;;;;;;8.27;1.45;;;;;;;13.49;91.42;101182.78;5026997;28;20531;-63
2022/09/16 04:48:36;;;;;;;3.15;0.90;;;;;;;13.49;91.50;101183.66;5027230;28;20029;-66
2022/09/16 04:51:04;;;;;;;4.90;0.95;;;;;;;13.43;91.86;101181.25;5026855;28;20078;-65
2022/09/16 04:53:30;;;;;;;4.25;1.00;;;;;;;13.34;92.65;101177.16;5029509;28;20029;-65
2022/09/16 04:56:18;;;;;;;4.68;0.93;;;;;;;13.35;92.45;101170.97;5029602;28;20045;-65
2022/09/16 04:58:45;;;;;;;4.50;1.17;;;;;;;13.38;92.46;101178.78;5031850;28;20554;-66
2022/09/16 05:01:15;;;;;;;2.20;0.70;;;;;;;13.40;92.48;101174.28;5030670;28;20021;-66
2022/09/16 05:03:42;;;;;;;7.68;0.80;;;;;;;13.47;91.84;101179.31;5031359;28;20029;-66
2022/09/16 05:06:13;;;;;;;8.05;1.20;;;;;;;13.46;91.70;101189.03;5024707;28;20069;-65
2022/09/16 05:08:39;;;;;;;3.42;0.80;;;;;;;13.42;91.69;101190.09;5010887;28;20040;-67
2022/09/16 05:11:10;;;;;;;5.28;1.02;;;;;;;13.38;91.84;101186.72;5013898;28;20384;-65
2022/09/16 05:13:36;;;;;;;6.75;1.33;;;;;;;13.45;91.70;101186.47;5028784;28;20026;-66
2022/09/16 05:16:06;;;;;;;4.55;0.95;;;;;;;13.50;91.75;101192.47;5030050;28;20395;-66
2022/09/16 05:18:32;;;;;;;7.43;0.90;;;;;;;13.51;91.60;101186.25;5031349;28;20055;-66
2022/09/16 05:20:59;;;;;;;2.85;0.70;;;;;;;13.58;91.20;101200.94;5030489;28;20049;-66
2022/09/16 05:23:24;;;;;;;5.68;1.35;;;;;;;13.62;90.71;101189.34;5024992;28;20025;-65
2022/09/16 05:25:50;;;;;;;5.18;0.98;;;;;;;13.67;90.13;101186.50;5030801;28;20018;-64
2022/09/16 05:28:15;;;;;;;6.00;0.93;;;;;;;13.60;90.00;101193.81;5031170;28;20029;-66
2022/09/16 05:30:40;;;;;;;5.97;1.15;;;;;;;13.55;90.01;101193.16;5022058;28;20056;-66
2022/09/16 05:33:05;;;;;;;6.75;1.38;;;;;;;13.56;90.44;101194.00;5021889;28;20033;-65
2022/09/16 05:35:31;;;;;;;6.05;1.30;;;;;;;13.53;90.75;101202.94;5019983;28;20053;-65
2022/09/16 05:37:56;;;;;;;9.80;1.15;;;;;;;13.51;91.06;101197.69;5029607;28;20531;-64
2022/09/16 05:40:21;;;;;;;5.97;1.20;;;;;;;13.49;91.77;101188.06;5030571;28;20168;-65
2022/09/16 05:42:50;;;;;;;10.43;1.92;;;;;;;13.45;93.21;101191.78;5027509;28;20034;-64
2022/09/16 05:45:15;;;;;;;5.10;1.30;;;;;;;13.52;93.21;101191.47;5020867;28;20018;-65
2022/09/16 05:47:41;;;;;;;7.78;1.05;;;;;;;13.58;93.97;101198.28;5019066;28;20295;-65
2022/09/16 05:50:06;;;;;;;7.53;1.38;;;;;;;13.62;93.98;101199.03;5023584;28;20029;-65
2022/09/16 05:52:32;;;;;;;10.63;1.58;;;;;;;13.71;94.55;101197.81;5021809;28;20524;-65
2022/09/16 05:54:57;;;;;;;11.35;1.40;;;;;;;13.81;94.97;101201.78;5020704;28;20025;-65
2022/09/16 05:57:22;;;;;;;7.65;1.50;;;;;;;14.02;94.05;101196.50;5027669;28;20018;-65
2022/09/16 05:59:48;;;;;;;4.50;1.35;;;;;;;14.23;93.92;101199.16;5028327;28;20064;-64
2022/09/16 06:02:13;;;;;;;4.45;1.27;;;;;;;14.45;94.04;101203.53;5025304;28;20112;-65
2022/09/16 06:04:38;;;;;;;4.32;1.40;;;;;;;14.74;93.67;101196.91;5018422;28;20029;-66
2022/09/16 06:07:06;;;;;;;6.20;1.45;;;;;;;15.09;92.18;101227.19;5016763;28;20432;-67
2022/09/16 06:09:31;;;;;;;5.60;1.35;;;;;;;15.43;88.57;101230.03;5028931;28;20463;-65
2022/09/16 06:11:56;;;;;;;5.07;1.10;;;;;;;15.32;87.20;101219.94;5029183;28;20045;-68
2022/09/16 06:14:22;;;;;;;6.22;1.30;;;;;;;14.45;84.59;101244.13;5017170;28;20038;-67
2022/09/16 06:16:47;;;;;;;16.45;2.17;;;;;;;13.74;87.57;101285.94;5010648;28;20100;-63
2022/09/16 06:19:14;;;;;;;12.63;1.38;;;;;;;13.34;90.22;101264.50;5021651;28;20025;-68
2022/09/16 06:21:42;;;;;;;7.82;1.27;;;;;;;13.30;90.83;101241.72;5030447;28;20413;-69
2022/09/16 06:24:07;;;;;;;11.00;1.60;;;;;;;13.44;90.70;101221.78;5021802;28;20018;-67
2022/09/16 06:26:33;;;;;;;2.97;1.08;;;;;;;13.52;90.86;101210.00;5027381;28;20044;-68
2022/09/16 06:28:58;;;;;;;8.48;1.25;;;;;;;13.61;90.90;101207.91;5026754;28;20563;-68
2022/09/16 06:31:26;;;;;;;4.35;1.02;;;;;;;13.63;90.57;101217.53;5029160;28;20109;-68
2022/09/16 06:33:52;;;;;;;9.25;1.35;;;;;;;13.63;90.65;101224.59;5028374;28;20038;-68
2022/09/16 06:36:26;;;;;;;10.77;1.10;;;;;;;13.76;90.71;101211.72;5029582;28;20132;-68
2022/09/16 06:38:51;;;;;;;7.82;1.17;;;;;;;13.84;90.23;101225.50;5021902;28;20029;-69
2022/09/16 06:41:18;;;;;;;15.57;1.75;;;;;;;13.87;90.40;101220.06;5022553;28;20029;-64
2022/09/16 06:43:44;;;;;;;4.20;1.05;;;;;;;14.05;89.62;101219.38;5017381;28;20013;-67
2022/09/16 06:46:15;;;;;;;9.63;1.35;;;;;;;14.12;88.84;101215.53;5022628;28;20064;-68
2022/09/16 06:48:44;;;;;;;12.77;1.35;;;;;;;14.21;87.69;101222.22;5018945;28;20025;-67
2022/09/16 06:51:13;;;;;;;5.18;1.10;;;;;;;14.23;87.45;101213.28;5017876;28;20024;-67
2022/09/16 06:53:39;;;;;;;4.95;1.20;;;;;;;14.26;87.29;101210.50;5019636;28;20099;-69
2022/09/16 06:56:07;;;;;;;5.75;1.48;;;;;;;14.27;87.25;101214.84;5021508;28;20025;-65
2022/09/16 06:58:34;;;;;;;4.93;1.20;;;;;;;14.38;86.75;101202.91;5016128;28;20038;-65
2022/09/16 07:01:12;;;;;;;5.65;1.27;;;;;;;14.46;86.57;101202.59;5015708;28;20025;-67
2022/09/16 07:03:39;;;;;;;3.55;0.98;;;;;;;14.51;86.14;101197.94;5028553;28;20057;-68
2022/09/16 07:06:05;;;;;;;4.35;0.98;;;;;;;14.58;86.49;101195.88;5021867;28;20060;-68
2022/09/16 07:08:31;;;;;;;4.43;0.90;;;;;;;14.79;85.61;101194.06;5026799;28;20029;-67
2022/09/16 07:10:58;;;;;;;4.47;0.80;;;;;;;15.00;85.51;101196.66;5028344;28;20033;-68
2022/09/16 07:13:23;;;;;;;3.40;0.77;;;;;;;15.20;85.28;101194.84;5026720;28;20487;-68
2022/09/16 07:15:49;;;;;;;4.47;1.00;;;;;;;15.50;84.90;101194.31;5028025;28;20032;-66
2022/09/16 07:18:14;;;;;;;5.57;1.00;;;;;;;15.84;84.45;101205.03;5028406;28;20464;-68
2022/09/16 07:20:39;;;;;;;5.80;0.75;;;;;;;16.01;83.09;101206.84;5027617;28;20035;-67
2022/09/16 07:23:05;;;;;;;8.77;1.35;;;;;;;16.50;81.21;101206.09;5019346;28;20072;-68
2022/09/16 07:25:30;;;;;;;7.32;1.45;;;;;;;16.65;80.57;101212.38;5022662;28;20492;-67
2022/09/16 07:27:56;;;;;;;7.07;1.80;;;;;;;16.80;80.83;101212.53;5027903;28;20052;-67
2022/09/16 07:30:21;;;;;;;4.28;1.13;;;;;;;16.83;79.14;101215.03;5026731;28;20025;-63
2022/09/16 07:32:47;;;;;;;2.70;0.73;;;;;;;16.84;78.92;101219.41;5026998;28;20424;-67
2022/09/16 07:35:12;;;;;;;6.63;1.30;;;;;;;16.76;78.74;101222.47;5025630;28;20072;-67
2022/09/16 07:37:37;;;;;;;7.18;1.10;;;;;;;16.70;78.40;101221.94;5025988;28;20041;-68
2022/09/16 07:40:04;;;;;;;6.20;0.90;;;;;;;16.57;78.27;101230.56;5026874;28;20108;-66
2022/09/16 07:42:29;;;;;;;4.72;0.90;;;;;;;16.59;78.43;101230.50;5027331;28;20365;-68
2022/09/16 07:44:54;;;;;;;6.40;1.02;;;;;;;16.58;77.78;101232.28;5028719;28;20043;-62
2022/09/16 07:47:20;;;;;;;8.65;1.00;;;;;;;16.59;78.10;101230.50;5022292;28;20022;-66
2022/09/16 07:49:45;;;;;;;10.02;1.42;;;;;;;16.62;77.58;101235.66;5016187;28;20022;-63
2022/09/16 07:52:11;;;;;;;7.30;1.40;;;;;;;16.71;78.33;101231.63;5018504;28;20040;-68
2022/09/16 07:54:36;;;;;;;6.88;1.25;;;;;;;16.64;79.65;101244.41;5019456;28;20017;-70
2022/09/16 07:57:02;;;;;;;7.18;1.20;;;;;;;16.54;79.18;101242.25;5017703;28;20048;-65
2022/09/16 07:59:28;;;;;;;4.53;1.02;;;;;;;16.59;77.88;101250.00;5021868;28;20120;-68
2022/09/16 08:01:53;;;;;;;6.75;1.20;;;;;;;16.51;76.84;101253.03;5019472;28;20137;-67
2022/09/16 08:04:19;;;;;;;5.55;1.10;;;;;;;16.62;77.90;101255.13;5040678;28;20024;-63
2022/09/16 08:06:44;;;;;;;7.05;1.10;;;;;;;16.58;76.43;101245.59;5028483;28;20512;-66
2022/09/16 08:09:10;;;;;;;5.50;1.13;;;;;;;16.67;74.73;101239.78;5027973;28;20033;-65
2022/09/16 08:11:35;;;;;;;9.05;1.15;;;;;;;16.85;76.18;101250.38;5027535;28;20484;-66
2022/09/16 08:14:00;;;;;;;8.82;0.93;;;;;;;16.89;75.85;101275.03;5026967;28;20045;-67
2022/09/16 08:16:26;;;;;;;4.57;0.90;;;;;;;16.91;75.56;101287.31;5026447;28;20021;-66
2022/09/16 08:18:54;;;;;;;6.35;0.82;;;;;;;16.44;76.84;101288.00;5026228;28;20025;-65
2022/09/16 08:21:22;;;;;;;3.90;0.85;;;;;;;15.99;76.88;101281.38;5026726;28;20017;-65
2022/09/16 08:23:47;;;;;;;6.35;1.20;;;;;;;15.46;78.58;101290.97;5027486;28;20017;-66
2022/09/16 08:26:13;;;;;;;3.88;1.00;;;;;;;15.64;77.99;101284.78;5027185;28;20510;-66
2022/09/16 08:28:40;;;;;;;4.68;1.10;;;;;;;15.78;77.49;101281.44;5024550;28;20846;-67
2022/09/16 08:31:06;;;;;;;6.70;1.02;;;;;;;15.65;78.69;101286.50;5026954;28;20017;-66
2022/09/16 08:33:32;;;;;;;5.18;1.05;;;;;;;15.66;79.53;101282.91;5027181;28;20555;-63
2022/09/16 08:36:04;;;;;;;4.55;1.05;;;;;;;15.72;79.43;101273.78;5026577;28;20030;-66
2022/09/16 08:38:30;;;;;;;6.18;1.30;;;;;;;15.88;77.88;101281.88;5024326;28;20018;-69
2022/09/16 08:41:01;;;;;;;4.55;1.10;;;;;;;15.97;78.33;101275.25;5027289;28;20020;-67
2022/09/16 08:43:41;;;;;;;8.38;1.00;;;;;;;16.21;76.92;101282.06;5026073;28;20176;-66
2022/09/16 08:46:16;;;;;;;5.18;1.23;;;;;;;16.30;77.57;101286.94;5025956;28;20029;-67
2022/09/16 08:48:53;;;;;;;4.82;1.70;;;;;;;16.62;75.60;101291.53;5024892;28;20439;-67
2022/09/16 08:51:19;;;;;;;8.27;0.80;;;;;;;17.17;75.23;101289.53;5025575;28;20095;-65
2022/09/16 08:53:51;;;;;;;6.78;1.00;;;;;;;17.52;73.83;101285.84;5027384;28;20460;-67
2022/09/16 08:56:19;;;;;;;6.65;1.08;;;;;;;17.68;73.32;101296.50;5024773;28;20478;-67
2022/09/16 08:58:47;;;;;;;7.53;1.00;;;;;;;17.76;73.15;101306.72;5024964;28;20037;-69
2022/09/16 09:01:19;;;;;;;7.13;1.02;;;;;;;17.68;73.55;101305.38;5013721;28;20049;-67
2022/09/16 09:03:46;;;;;;;3.20;1.05;;;;;;;17.38;75.09;101310.59;5015958;28;20030;-67
2022/09/16 09:06:39;;;;;;;7.47;1.42;;;;;;;17.08;75.87;101309.53;5016518;28;20036;-67
2022/09/16 09:09:36;;;;;;;7.55;1.17;;;;;;;16.97;76.45;101309.19;5016400;28;20066;-70
2022/09/16 09:12:05;;;;;;;8.35;1.23;;;;;;;16.86;77.39;101315.13;5018476;28;20109;-67
2022/09/16 09:14:53;;;;;;;15.57;1.85;;;;;;;17.07;77.04;101318.47;5023994;28;20029;-68
2022/09/16 09:17:53;;;;;;;10.52;1.80;;;;;;;16.98;75.43;101318.94;5025391;28;20025;-70
2022/09/16 09:20:30;;;;;;;5.40;1.02;;;;;;;17.42;72.91;101307.69;5025373;28;20037;-64
2022/09/16 09:23:18;;;;;;;4.20;1.30;;;;;;;17.63;73.70;101310.09;5027396;28;20029;-66
2022/09/16 09:26:15;;;;;;;7.80;1.10;;;;;;;17.86;72.25;101299.06;5026402;28;20041;-68
2022/09/16 09:28:49;;;;;;;4.10;1.00;;;;;;;17.76;69.89;101310.22;4990578;28;20033;-71
2022/09/16 09:31:28;;;;;;;2.72;1.05;;;;;;;17.44;71.25;101294.28;5026508;28;20047;-66
2022/09/16 09:34:23;;;;;;;4.90;1.20;;;;;;;17.70;70.37;101299.09;5025161;28;20034;-78
2022/09/16 09:37:04;;;;;;;6.32;1.25;;;;;;;17.47;71.34;101298.56;5019895;28;20056;-64
2022/09/16 09:39:39;;;;;;;7.10;1.00;;;;;;;17.27;71.23;101297.88;5024676;28;20104;-67
2022/09/16 09:42:16;;;;;;;4.80;0.88;;;;;;;17.26;72.41;101299.69;5021653;28;20064;-61
2022/09/16 09:44:55;;;;;;;5.70;1.17;;;;;;;17.21;72.42;101315.03;5019627;28;20021;-66
2022/09/16 09:47:25;;;;;;;5.90;1.17;;;;;;;17.21;72.29;101314.16;5019192;28;20071;-65
2022/09/16 09:49:54;;;;;;;8.70;1.25;;;;;;;17.32;72.59;101309.13;5018193;28;20342;-65
2022/09/16 09:52:43;;;;;;;3.47;1.08;;;;;;;17.54;72.92;101313.25;5017720;28;20026;-65
2022/09/16 09:55:20;;;;;;;6.65;1.05;;;;;;;17.71;72.98;101311.44;5009866;28;20842;-69
2022/09/16 09:57:56;;;;;;;4.72;0.98;;;;;;;17.66;72.64;101309.91;5009398;28;20491;-64
2022/09/16 10:00:22;;;;;;;4.38;1.05;;;;;;;17.63;74.02;101299.41;5012554;28;20026;-65
2022/09/16 10:02:47;;;;;;;3.17;0.90;;;;;;;17.79;72.70;101293.22;5016075;28;20034;-66
2022/09/16 10:05:27;;;;;;;3.22;1.25;;;;;;;17.76;73.37;101291.56;5013875;28;20025;-66
2022/09/16 10:07:56;;;;;;;5.00;1.20;;;;;;;17.55;74.37;101291.84;5023876;28;20049;-67
2022/09/16 10:10:23;;;;;;;4.28;1.10;;;;;;;17.56;73.06;101303.38;5015769;28;20461;-66
2022/09/16 10:12:49;;;;;;;6.30;1.10;;;;;;;17.48;73.53;101300.28;5020599;28;20068;-67
2022/09/16 10:15:24;;;;;;;7.60;1.17;;;;;;;17.21;75.02;101312.38;5029784;28;20021;-70
2022/09/16 10:17:51;;;;;;;5.53;1.02;;;;;;;16.88;76.67;101306.09;5026587;28;20034;-67
2022/09/16 10:20:27;;;;;;;4.65;1.05;;;;;;;16.75;76.13;101308.56;5022928;28;20033;-63
2022/09/16 10:23:07;;;;;;;5.50;1.10;;;;;;;16.70;75.99;101307.94;5027705;28;20033;-69
2022/09/16 10:25:33;;;;;;;4.82;1.13;;;;;;;16.40;76.32;101309.44;5014753;28;20128;-69
2022/09/16 10:28:01;;;;;;;7.30;1.23;;;;;;;16.57;76.43;101310.38;5022052;28;20105;-69
2022/09/16 10:30:28;;;;;;;4.43;1.10;;;;;;;16.68;77.19;101307.16;5030648;28;20025;-69
2022/09/16 10:32:57;;;;;;;7.70;1.00;;;;;;;16.80;78.13;101300.34;5029045;28;20083;-69
2022/09/16 10:35:25;;;;;;;2.85;0.90;;;;;;;16.99;77.62;101300.22;5027886;28;20084;-65
2022/09/16 10:38:16;;;;;;;6.10;1.17;;;;;;;17.24;76.76;101295.38;5029152;28;20021;-68
2022/09/16 10:40:53;;;;;;;6.63;1.40;;;;;;;17.72;76.60;101291.84;5026823;28;20451;-69
2022/09/16 10:43:18;;;;;;;7.90;1.40;;;;;;;18.31;74.68;101283.97;5029579;28;20030;-63
2022/09/16 10:45:49;;;;;;;6.40;0.75;;;;;;;18.38;73.00;101276.50;5030149;28;20662;-70
2022/09/16 10:48:16;;;;;;;5.38;1.50;;;;;;;18.67;69.03;101275.66;5030359;28;20040;-68
2022/09/16 10:51:20;;;;;;;9.10;1.38;;;;;;;18.63;66.54;101277.66;5026673;28;20457;-69
2022/09/16 10:53:51;;;;;;;3.80;0.93;;;;;;;18.66;66.23;101277.47;5026115;28;20049;-69
2022/09/16 10:56:28;;;;;;;6.63;1.15;;;;;;;18.73;68.28;101285.97;5030142;28;20029;-68
2022/09/16 10:59:11;;;;;;;7.63;1.42;;;;;;;18.11;68.26;101294.97;5030119;28;20418;-66
2022/09/16 11:01:52;;;;;;;5.72;1.17;;;;;;;17.67;67.60;101298.28;5028340;28;20060;-67
2022/09/16 11:04:49;;;;;;;6.38;1.17;;;;;;;17.67;67.11;101300.97;5028361;28;20431;-66
2022/09/16 11:07:27;;;;;;;4.32;0.70;;;;;;;17.70;66.74;101309.75;5027696;28;20030;-66
2022/09/16 11:10:17;;;;;;;2.67;1.00;;;;;;;17.87;66.10;101303.44;5027738;28;20021;-70
2022/09/16 11:12:59;;;;;;;4.10;0.77;;;;;;;17.94;65.35;101308.31;5029373;28;20538;-71
2022/09/16 11:15:51;;;;;;;3.33;0.85;;;;;;;18.18;65.22;101302.53;5028755;28;20108;-66
2022/09/16 11:18:44;;;;;;;4.97;1.17;;;;;;;18.65;63.64;101305.13;5027199;28;20033;-64
2022/09/16 11:21:36;;;;;;;3.72;1.10;;;;;;;18.93;62.65;101311.44;5027431;28;20021;-66
2022/09/16 11:24:21;;;;;;;7.05;1.08;;;;;;;18.82;63.75;101314.75;5021826;28;20034;-66
2022/09/16 11:27:01;;;;;;;7.50;1.45;;;;;;;18.60;61.91;101320.53;5027618;28;20060;-68
2022/09/16 11:29:41;;;;;;;6.20;1.20;;;;;;;18.23;59.79;101315.59;5028329;28;20033;-68
2022/09/16 11:32:37;;;;;;;6.22;1.25;;;;;;;18.39;59.67;101309.38;5028585;28;20033;-67
2022/09/16 11:35:26;;;;;;;6.68;1.63;;;;;;;19.19;59.95;101310.78;5027601;28;20044;-68
2022/09/16 11:38:12;;;;;;;7.80;1.33;;;;;;;19.64;59.69;101310.59;5028242;28;20033;-66
2022/09/16 11:41:02;;;;;;;7.32;1.40;;;;;;;19.97;56.64;101316.50;5009607;28;20396;-67
2022/09/16 11:43:56;;;;;;;9.57;1.83;;;;;;;19.14;61.26;101345.78;4994384;28;20082;-69